Time;durP1;ratioP1;P1;durP2;ratioP2;P2;SDS_P1;SDS_P2;PMS_P1;PMS_P2;Temp;Humidity;BMP_temperature;BMP_pressure;BME280_temperature;BME280_humidity;BME280_pressure;Samples;Min_cycle;Max_cycle;Signal;HPM_P1;HPM_P2
2021/12/28 00:01:20;;;;;;;7.78;2.90;;;;;;;;;;5010154;28;20045;-67
2021/12/28 00:03:46;;;;;;;12.13;4.45;;;;;;;;;;5010887;28;20056;-66
2021/12/28 00:06:12;;;;;;;9.77;3.22;;;;;;;;;;5010914;28;20034;-67
2021/12/28 00:08:37;;;;;;;8.70;3.67;;;;;;;;;;5010501;28;20418;-66
2021/12/28 00:11:03;;;;;;;10.68;3.53;;;;;;;;;;5009861;28;20164;-68
2021/12/28 00:13:30;;;;;;;11.55;3.50;;;;;;;;;;5010494;28;20613;-68
2021/12/28 00:18:21;;;;;;;10.00;3.25;;;;;;;;;;5010693;28;20029;-67
2021/12/28 00:20:48;;;;;;;4.80;2.15;;;;;;;;;;5010207;28;20022;-67
2021/12/28 00:23:13;;;;;;;12.00;3.42;;;;;;;;;;5010422;28;20497;-67
2021/12/28 00:25:39;;;;;;;3.63;1.77;;;;;;;;;;5010228;28;20033;-67
2021/12/28 00:28:04;;;;;;;7.15;3.30;;;;;;;;;;5010499;28;20021;-67
2021/12/28 00:30:29;;;;;;;7.47;2.90;;;;;;;;;;5010488;28;20026;-67
2021/12/28 00:32:56;;;;;;;3.28;1.17;;;;;;;;;;5010089;28;20038;-67
2021/12/28 00:35:26;;;;;;;15.52;3.65;;;;;;;;;;5008470;28;20382;-68
2021/12/28 00:37:52;;;;;;;;;;;;;;;;;;5009816;28;20018;-68
2021/12/28 00:40:17;;;;;;;9.70;3.25;;;;;;;;;;5010274;28;19916;-66
2021/12/28 00:42:42;;;;;;;7.30;2.72;;;;;;;;;;5010047;28;20045;-66
2021/12/28 00:45:08;;;;;;;7.53;2.83;;;;;;;;;;5010316;28;20106;-67
2021/12/28 00:47:33;;;;;;;5.32;2.80;;;;;;;;;;5010449;28;20025;-66
2021/12/28 00:49:59;;;;;;;6.55;2.95;;;;;;;;;;5017252;28;20108;-67
2021/12/28 00:52:24;;;;;;;4.45;1.90;;;;;;;;;;5010839;28;20026;-68
2021/12/28 00:54:49;;;;;;;4.88;2.85;;;;;;;;;;5008815;28;20730;-66
2021/12/28 00:57:14;;;;;;;4.47;2.30;;;;;;;;;;5009631;28;20029;-66
2021/12/28 00:59:39;;;;;;;2.78;1.83;;;;;;;;;;5010338;28;20285;-68
2021/12/28 01:02:04;;;;;;;3.30;1.58;;;;;;;;;;5008865;28;20358;-68
2021/12/28 01:04:31;;;;;;;3.40;1.83;;;;;;;;;;5010085;28;20030;-66
2021/12/28 01:06:56;;;;;;;9.48;3.10;;;;;;;;;;5010010;28;20022;-66
2021/12/28 01:09:23;;;;;;;9.18;2.33;;;;;;;;;;5010356;28;20508;-66
2021/12/28 01:11:48;;;;;;;5.25;2.22;;;;;;;;;;5010792;28;20409;-67
2021/12/28 01:14:13;;;;;;;9.00;3.08;;;;;;;;;;5014047;28;20026;-67
2021/12/28 01:16:38;;;;;;;7.55;1.80;;;;;;;;;;5013720;28;20024;-68
2021/12/28 01:19:05;;;;;;;15.20;3.50;;;;;;;;;;5013824;28;20032;-66
2021/12/28 01:21:30;;;;;;;2.95;1.90;;;;;;;;;;5012358;28;20020;-67
2021/12/28 01:23:55;;;;;;;10.88;2.47;;;;;;;;;;5013879;28;20538;-67
2021/12/28 01:26:20;;;;;;;5.27;1.80;;;;;;;;;;5013822;28;20500;-67
2021/12/28 01:28:46;;;;;;;9.98;3.05;;;;;;;;;;5013357;28;20265;-67
2021/12/28 01:31:11;;;;;;;15.52;2.95;;;;;;;;;;5013452;28;20022;-68
2021/12/28 01:33:36;;;;;;;11.93;2.78;;;;;;;;;;5022080;23;20041;-66
2021/12/28 01:36:02;;;;;;;3.60;1.42;;;;;;;;;;5013734;28;20060;-66
2021/12/28 01:38:27;;;;;;;14.20;2.63;;;;;;;;;;5013651;28;20465;-66
2021/12/28 01:40:53;;;;;;;6.63;1.63;;;;;;;;;;5013117;28;20014;-66
2021/12/28 01:43:19;;;;;;;5.65;2.45;;;;;;;;;;5013594;28;20480;-66
2021/12/28 01:45:52;;;;;;;6.88;2.03;;;;;;;;;;5013399;28;20101;-66
2021/12/28 01:48:17;;;;;;;4.47;2.05;;;;;;;;;;5014520;28;20030;-66
2021/12/28 01:50:43;;;;;;;14.47;3.27;;;;;;;;;;5012936;28;20378;-66
2021/12/28 01:53:10;;;;;;;9.45;1.80;;;;;;;;;;5013276;28;20265;-66
2021/12/28 01:55:36;;;;;;;13.85;3.13;;;;;;;;;;5012949;28;20205;-66
2021/12/28 01:58:02;;;;;;;18.00;2.40;;;;;;;;;;5013438;28;20068;-66
2021/12/28 02:00:27;;;;;;;8.90;2.00;;;;;;;;;;5012926;28;20490;-66
2021/12/28 02:02:52;;;;;;;8.88;1.77;;;;;;;;;;5014296;28;20014;-66
2021/12/28 02:05:18;;;;;;;9.00;2.00;;;;;;;;;;5013124;28;20093;-66
2021/12/28 02:07:43;;;;;;;14.07;2.42;;;;;;;;;;5011608;28;20374;-66
2021/12/28 02:10:08;;;;;;;7.63;1.60;;;;;;;;;;5012370;28;20462;-66
2021/12/28 02:12:34;;;;;;;11.00;3.30;;;;;;;;;;5012537;28;20037;-66
2021/12/28 02:15:05;;;;;;;10.43;1.80;;;;;;;;;;5017298;28;20026;-66
2021/12/28 02:17:31;;;;;;;16.15;2.60;;;;;;;;;;5011017;28;20018;-66
2021/12/28 02:19:56;;;;;;;16.25;2.67;;;;;;;;;;5013417;28;20022;-66
2021/12/28 02:22:21;;;;;;;15.18;2.63;;;;;;;;;;5012357;28;20505;-66
2021/12/28 02:24:46;;;;;;;14.50;3.20;;;;;;;;;;5012082;28;20040;-66
2021/12/28 02:27:11;;;;;;;27.45;3.78;;;;;;;;;;5012830;28;20332;-66
2021/12/28 02:29:36;;;;;;;21.50;3.92;;;;;;;;;;5013061;28;20402;-66
2021/12/28 02:32:02;;;;;;;18.40;3.58;;;;;;;;;;5012301;28;20026;-66
2021/12/28 02:34:27;;;;;;;27.00;4.45;;;;;;;;;;5012697;28;20033;-66
2021/12/28 02:36:52;;;;;;;19.38;4.05;;;;;;;;;;5012218;28;20186;-66
2021/12/28 02:39:18;;;;;;;33.00;3.10;;;;;;;;;;5012417;28;20018;-66
2021/12/28 02:41:43;;;;;;;18.95;5.38;;;;;;;;;;5011796;28;20072;-66
2021/12/28 02:44:08;;;;;;;22.03;3.93;;;;;;;;;;5030841;28;20478;-66
2021/12/28 02:46:34;;;;;;;15.75;2.67;;;;;;;;;;5022475;28;20268;-66
2021/12/28 02:48:59;;;;;;;18.08;3.13;;;;;;;;;;5012509;28;20056;-66
2021/12/28 02:51:25;;;;;;;25.73;3.65;;;;;;;;;;5011874;28;20026;-66
2021/12/28 02:53:50;;;;;;;17.98;3.17;;;;;;;;;;5012069;28;20528;-66
2021/12/28 02:56:16;;;;;;;4.57;1.25;;;;;;;;;;5026884;28;20026;-66
2021/12/28 02:58:43;;;;;;;17.35;1.83;;;;;;;;;;5012553;28;20097;-66
2021/12/28 03:01:09;;;;;;;13.65;2.25;;;;;;;;;;5011614;28;20067;-66
2021/12/28 03:03:35;;;;;;;11.73;2.03;;;;;;;;;;5011603;28;20101;-66
2021/12/28 03:06:01;;;;;;;12.75;2.17;;;;;;;;;;5011845;28;20021;-66
2021/12/28 03:08:27;;;;;;;29.42;2.95;;;;;;;;;;5012801;28;20458;-66
2021/12/28 03:10:53;;;;;;;8.80;2.17;;;;;;;;;;5011941;28;20033;-66
2021/12/28 03:13:21;;;;;;;29.63;3.70;;;;;;;;;;5011964;28;20030;-66
2021/12/28 03:15:46;;;;;;;20.05;2.30;;;;;;;;;;5011407;28;20028;-66
2021/12/28 03:18:11;;;;;;;9.27;1.50;;;;;;;;;;5011867;28;20391;-66
2021/12/28 03:20:37;;;;;;;23.83;2.35;;;;;;;;;;5011282;28;20030;-66
2021/12/28 03:23:02;;;;;;;12.43;2.10;;;;;;;;;;5011745;28;20178;-66
2021/12/28 03:25:27;;;;;;;21.90;3.85;;;;;;;;;;5011865;28;20026;-66
2021/12/28 03:27:53;;;;;;;15.05;2.30;;;;;;;;;;5011164;28;20036;-66
2021/12/28 03:30:18;;;;;;;18.88;3.42;;;;;;;;;;5011127;28;20224;-66
2021/12/28 03:32:43;;;;;;;9.63;2.25;;;;;;;;;;5011288;28;20457;-66
2021/12/28 03:35:10;;;;;;;16.63;2.53;;;;;;;;;;5010289;28;20108;-66
2021/12/28 03:37:35;;;;;;;20.42;3.40;;;;;;;;;;5017891;28;20064;-66
2021/12/28 03:40:01;;;;;;;18.38;3.10;;;;;;;;;;5025490;28;20092;-66
2021/12/28 03:42:26;;;;;;;22.75;3.05;;;;;;;;;;5011073;28;20014;-66
2021/12/28 03:44:52;;;;;;;15.13;3.20;;;;;;;;;;5010930;28;20124;-66
2021/12/28 03:47:17;;;;;;;25.40;2.55;;;;;;;;;;5010928;28;20029;-66
2021/12/28 03:49:42;;;;;;;8.43;1.65;;;;;;;;;;5010355;28;20429;-66
2021/12/28 03:52:08;;;;;;;19.73;1.60;;;;;;;;;;5010076;28;20045;-66
2021/12/28 03:54:33;;;;;;;31.70;3.38;;;;;;;;;;5010732;28;20486;-66
2021/12/28 03:56:59;;;;;;;16.88;1.75;;;;;;;;;;5010642;28;20376;-66
2021/12/28 03:59:24;;;;;;;17.20;2.72;;;;;;;;;;5021594;28;20021;-66
2021/12/28 04:01:49;;;;;;;8.80;2.70;;;;;;;;;;5010931;28;20405;-66
2021/12/28 04:04:15;;;;;;;15.20;2.85;;;;;;;;;;5010308;28;20022;-66
2021/12/28 04:06:40;;;;;;;13.32;3.92;;;;;;;;;;5009955;28;20037;-66
2021/12/28 04:09:07;;;;;;;17.52;2.35;;;;;;;;;;5010749;28;20115;-66
2021/12/28 04:11:32;;;;;;;16.90;2.58;;;;;;;;;;5010038;28;20018;-66
2021/12/28 04:14:03;;;;;;;18.67;2.95;;;;;;;;;;5029730;28;20017;-67
2021/12/28 04:16:28;;;;;;;;;;;;;;;;;;5013684;28;20026;-66
2021/12/28 04:18:53;;;;;;;21.52;3.90;;;;;;;;;;5025962;28;20297;-66
2021/12/28 04:21:18;;;;;;;33.42;2.85;;;;;;;;;;5011135;28;20271;-66
2021/12/28 04:23:44;;;;;;;12.00;2.88;;;;;;;;;;5010232;28;20022;-66
2021/12/28 04:26:09;;;;;;;26.90;3.08;;;;;;;;;;5010760;28;20092;-66
2021/12/28 04:28:34;;;;;;;30.23;2.97;;;;;;;;;;5010873;28;20141;-66
2021/12/28 04:31:00;;;;;;;10.55;3.20;;;;;;;;;;5009072;28;20026;-66
2021/12/28 04:33:25;;;;;;;12.55;2.13;;;;;;;;;;5010389;28;20034;-66
2021/12/28 04:35:51;;;;;;;12.15;2.17;;;;;;;;;;5010114;28;20030;-66
2021/12/28 04:38:16;;;;;;;15.98;2.28;;;;;;;;;;5011020;28;20029;-66
2021/12/28 04:40:41;;;;;;;15.25;3.60;;;;;;;;;;5010170;28;20425;-66
2021/12/28 04:43:07;;;;;;;11.88;3.63;;;;;;;;;;5010358;28;20025;-66
2021/12/28 04:45:32;;;;;;;19.75;3.38;;;;;;;;;;5010950;28;20034;-66
2021/12/28 04:47:57;;;;;;;10.02;2.42;;;;;;;;;;5010171;28;20029;-66
2021/12/28 04:50:23;;;;;;;12.55;2.42;;;;;;;;;;5010150;28;20439;-67
2021/12/28 04:52:49;;;;;;;16.83;2.33;;;;;;;;;;5009984;28;20014;-67
2021/12/28 04:55:16;;;;;;;17.33;3.70;;;;;;;;;;5010612;28;20022;-67
2021/12/28 04:57:41;;;;;;;19.50;2.45;;;;;;;;;;5010103;28;20056;-67
2021/12/28 05:00:09;;;;;;;25.15;4.53;;;;;;;;;;5010075;28;20057;-66
2021/12/28 05:02:34;;;;;;;22.33;3.97;;;;;;;;;;5010222;28;20475;-67
2021/12/28 05:05:00;;;;;;;15.27;3.17;;;;;;;;;;5010138;28;20040;-67
2021/12/28 05:07:26;;;;;;;28.45;2.67;;;;;;;;;;5009900;28;20030;-67
2021/12/28 05:09:57;;;;;;;24.27;4.32;;;;;;;;;;5009738;28;20058;-67
2021/12/28 05:12:22;;;;;;;12.18;4.00;;;;;;;;;;5010101;28;20068;-67
2021/12/28 05:14:47;;;;;;;8.27;2.50;;;;;;;;;;5010128;28;20108;-67
2021/12/28 05:17:13;;;;;;;15.30;3.88;;;;;;;;;;5009887;28;20265;-67
2021/12/28 05:19:38;;;;;;;26.97;4.77;;;;;;;;;;5009995;28;20030;-67
2021/12/28 05:22:04;;;;;;;22.63;3.10;;;;;;;;;;5009569;28;20381;-66
2021/12/28 05:24:29;;;;;;;19.27;3.03;;;;;;;;;;5009768;28;20026;-67
2021/12/28 05:26:54;;;;;;;22.77;3.65;;;;;;;;;;5011424;28;20030;-66
2021/12/28 05:29:20;;;;;;;8.82;3.08;;;;;;;;;;5010032;28;20026;-67
2021/12/28 05:31:45;;;;;;;12.48;3.30;;;;;;;;;;5009766;28;20022;-66
2021/12/28 05:34:10;;;;;;;16.35;2.90;;;;;;;;;;5010412;28;20030;-67
2021/12/28 05:36:35;;;;;;;10.32;3.10;;;;;;;;;;5009983;28;20064;-67
2021/12/28 05:39:01;;;;;;;6.43;2.30;;;;;;;;;;5009913;28;20054;-66
2021/12/28 05:41:26;;;;;;;13.90;4.07;;;;;;;;;;5013916;28;20030;-66
2021/12/28 05:43:51;;;;;;;21.75;4.07;;;;;;;;;;5008474;28;20084;-67
2021/12/28 05:46:17;;;;;;;24.88;4.68;;;;;;;;;;5009791;28;20036;-66
2021/12/28 05:48:42;;;;;;;32.67;5.90;;;;;;;;;;5009764;28;20037;-67
2021/12/28 05:51:07;;;;;;;5.68;2.15;;;;;;;;;;5024549;28;20022;-66
2021/12/28 05:53:32;;;;;;;10.52;2.58;;;;;;;;;;5009869;28;20104;-66
2021/12/28 05:55:58;;;;;;;11.98;4.72;;;;;;;;;;5009642;28;20497;-66
2021/12/28 05:58:23;;;;;;;14.05;3.40;;;;;;;;;;5010393;28;20057;-67
2021/12/28 06:00:48;;;;;;;8.65;2.78;;;;;;;;;;5013285;28;20049;-67
2021/12/28 06:03:13;;;;;;;18.77;4.40;;;;;;;;;;5013086;28;20026;-67
2021/12/28 06:05:38;;;;;;;18.50;3.10;;;;;;;;;;5013301;28;20022;-67
2021/12/28 06:08:04;;;;;;;24.20;5.07;;;;;;;;;;5013028;28;20026;-67
2021/12/28 06:10:29;;;;;;;12.65;3.20;;;;;;;;;;5027745;28;20022;-66
2021/12/28 06:12:54;;;;;;;10.02;2.65;;;;;;;;;;5012244;28;20040;-66
2021/12/28 06:15:19;;;;;;;16.33;2.75;;;;;;;;;;5013011;28;20048;-66
2021/12/28 06:17:45;;;;;;;5.80;1.60;;;;;;;;;;5012493;28;20022;-66
2021/12/28 06:20:10;;;;;;;15.93;3.40;;;;;;;;;;5012714;28;20359;-66
2021/12/28 06:22:35;;;;;;;26.48;4.10;;;;;;;;;;5012573;28;20026;-66
2021/12/28 06:25:01;;;;;;;9.95;3.20;;;;;;;;;;5012654;28;20390;-66
2021/12/28 06:27:26;;;;;;;12.90;3.58;;;;;;;;;;5012956;28;20025;-66
2021/12/28 06:29:52;;;;;;;10.57;2.47;;;;;;;;;;5012726;28;20029;-66
2021/12/28 06:32:17;;;;;;;5.95;1.70;;;;;;;;;;5012320;28;20045;-66
2021/12/28 06:34:42;;;;;;;18.65;3.30;;;;;;;;;;5011937;28;20525;-66
2021/12/28 06:37:07;;;;;;;6.70;2.30;;;;;;;;;;5012484;28;20474;-66
2021/12/28 06:39:33;;;;;;;11.15;2.67;;;;;;;;;;5011098;28;20014;-66
2021/12/28 06:41:58;;;;;;;8.10;3.08;;;;;;;;;;5011089;28;20506;-66
2021/12/28 06:44:23;;;;;;;9.68;1.88;;;;;;;;;;5011238;28;20057;-66
2021/12/28 06:46:49;;;;;;;10.60;2.05;;;;;;;;;;5005297;28;20018;-67
2021/12/28 06:49:14;;;;;;;9.45;2.17;;;;;;;;;;5008946;28;20021;-66
2021/12/28 06:51:39;;;;;;;6.35;2.63;;;;;;;;;;5011249;28;20018;-67
2021/12/28 06:54:05;;;;;;;18.88;1.70;;;;;;;;;;5011121;28;20029;-66
2021/12/28 06:56:30;;;;;;;10.20;2.47;;;;;;;;;;5015715;28;20466;-66
2021/12/28 06:58:55;;;;;;;8.90;1.98;;;;;;;;;;5013384;28;20298;-66
2021/12/28 07:01:22;;;;;;;6.80;1.33;;;;;;;;;;5020554;28;20018;-66
2021/12/28 07:03:48;;;;;;;14.32;3.03;;;;;;;;;;5011896;28;20107;-66
2021/12/28 07:06:16;;;;;;;8.77;1.95;;;;;;;;;;5012188;28;20050;-66
2021/12/28 07:08:41;;;;;;;10.88;1.80;;;;;;;;;;5012040;28;20026;-66
2021/12/28 07:11:07;;;;;;;6.35;2.22;;;;;;;;;;5011843;28;20032;-66
2021/12/28 07:13:32;;;;;;;13.33;2.33;;;;;;;;;;5011841;28;20508;-67
2021/12/28 07:15:57;;;;;;;11.02;1.20;;;;;;;;;;5010990;28;20412;-66
2021/12/28 07:18:22;;;;;;;10.32;1.73;;;;;;;;;;5011139;28;20049;-66
2021/12/28 07:20:48;;;;;;;6.25;1.65;;;;;;;;;;5010889;28;20071;-66
2021/12/28 07:23:13;;;;;;;9.80;2.10;;;;;;;;;;5010222;28;20066;-66
2021/12/28 07:25:39;;;;;;;5.45;1.83;;;;;;;;;;5011189;28;20024;-66
2021/12/28 07:28:04;;;;;;;8.32;1.55;;;;;;;;;;5011379;28;20031;-66
2021/12/28 07:30:29;;;;;;;11.07;1.43;;;;;;;;;;5011482;28;20017;-66
2021/12/28 07:35:19;;;;;;;8.90;1.87;;;;;;;;;;5055459;23;20049;-67
2021/12/28 07:37:45;;;;;;;6.47;1.45;;;;;;;;;;5030728;28;20672;-67
2021/12/28 07:40:10;;;;;;;19.50;3.05;;;;;;;;;;5024498;28;20483;-67
2021/12/28 07:42:36;;;;;;;11.02;2.72;;;;;;;;;;5027360;28;20029;-68
2021/12/28 07:45:02;;;;;;;13.18;3.05;;;;;;;;;;5030573;28;20033;-68
2021/12/28 07:47:27;;;;;;;8.05;1.70;;;;;;;;;;5030589;28;20048;-68
2021/12/28 07:49:52;;;;;;;6.25;2.50;;;;;;;;;;5030839;28;20473;-68
2021/12/28 07:52:18;;;;;;;11.57;1.57;;;;;;;;;;5030952;28;20033;-67
2021/12/28 07:54:43;;;;;;;10.00;2.38;;;;;;;;;;5029202;28;20280;-67
2021/12/28 07:57:08;;;;;;;6.68;1.83;;;;;;;;;;5030950;28;20563;-69
2021/12/28 07:59:34;;;;;;;4.15;1.35;;;;;;;;;;5029962;28;20123;-69
2021/12/28 08:01:59;;;;;;;5.57;1.60;;;;;;;;;;5027149;28;20021;-69
2021/12/28 08:04:27;;;;;;;2.08;1.23;;;;;;;;;;5029681;28;20030;-67
2021/12/28 08:06:52;;;;;;;4.78;2.15;;;;;;;;;;5031178;28;20017;-68
2021/12/28 08:09:18;;;;;;;2.33;0.70;;;;;;;;;;5029374;28;20033;-67
2021/12/28 08:11:43;;;;;;;9.90;2.15;;;;;;;;;;5030343;28;20022;-68
2021/12/28 08:14:08;;;;;;;7.90;1.90;;;;;;;;;;5030805;28;20540;-68
2021/12/28 08:16:33;;;;;;;10.90;2.17;;;;;;;;;;5028210;28;20315;-67
2021/12/28 08:18:58;;;;;;;10.00;1.67;;;;;;;;;;5029780;28;20624;-68
2021/12/28 08:21:25;;;;;;;5.05;1.33;;;;;;;;;;5030025;28;20095;-68
2021/12/28 08:23:50;;;;;;;7.90;1.48;;;;;;;;;;5030610;28;20104;-67
2021/12/28 08:26:16;;;;;;;9.87;2.30;;;;;;;;;;5030644;28;20104;-67
2021/12/28 08:28:42;;;;;;;8.55;2.50;;;;;;;;;;5027708;28;20272;-68
2021/12/28 08:31:07;;;;;;;3.72;1.48;;;;;;;;;;5029586;28;20470;-67
2021/12/28 08:33:32;;;;;;;6.13;1.48;;;;;;;;;;5032225;28;20028;-68
2021/12/28 08:35:58;;;;;;;7.22;1.55;;;;;;;;;;5030000;28;20037;-68
2021/12/28 08:38:23;;;;;;;6.38;0.98;;;;;;;;;;5030355;28;20028;-68
2021/12/28 08:40:48;;;;;;;6.47;1.38;;;;;;;;;;5029787;28;20027;-68
2021/12/28 08:43:13;;;;;;;6.90;1.38;;;;;;;;;;5030239;28;20382;-68
2021/12/28 08:45:40;;;;;;;6.43;1.27;;;;;;;;;;5030034;28;20025;-67
2021/12/28 08:48:06;;;;;;;12.93;2.08;;;;;;;;;;5029798;28;20362;-68
2021/12/28 08:50:31;;;;;;;3.05;1.33;;;;;;;;;;5029841;28;20033;-68
2021/12/28 08:52:57;;;;;;;8.63;1.60;;;;;;;;;;5029964;28;20033;-68
2021/12/28 08:55:22;;;;;;;8.82;1.45;;;;;;;;;;5030020;28;20032;-68
2021/12/28 08:57:48;;;;;;;4.97;0.65;;;;;;;;;;5030130;28;20056;-68
2021/12/28 09:00:18;;;;;;;1.33;0.65;;;;;;;;;;5029859;28;20425;-68
2021/12/28 09:02:44;;;;;;;7.18;1.17;;;;;;;;;;5029949;28;20076;-68
2021/12/28 09:05:09;;;;;;;7.07;1.85;;;;;;;;;;5030246;28;20025;-68
2021/12/28 09:07:35;;;;;;;2.15;0.68;;;;;;;;;;5028256;28;20036;-68
2021/12/28 09:10:00;;;;;;;5.75;1.25;;;;;;;;;;5027581;28;20018;-68
2021/12/28 09:12:25;;;;;;;6.45;1.15;;;;;;;;;;5028910;28;20033;-68
2021/12/28 09:14:51;;;;;;;4.35;1.10;;;;;;;;;;5024085;28;20025;-68
2021/12/28 09:17:16;;;;;;;4.38;1.17;;;;;;;;;;5028652;28;20030;-68
2021/12/28 09:19:41;;;;;;;5.20;1.20;;;;;;;;;;5029088;28;20159;-68
2021/12/28 09:22:06;;;;;;;6.10;1.10;;;;;;;;;;5029608;28;20275;-68
2021/12/28 09:24:32;;;;;;;8.80;1.63;;;;;;;;;;5029570;28;20032;-68
2021/12/28 09:26:57;;;;;;;2.67;1.10;;;;;;;;;;5028610;28;20553;-68
2021/12/28 09:29:25;;;;;;;5.00;1.17;;;;;;;;;;5030068;28;20029;-68
2021/12/28 09:31:51;;;;;;;3.35;1.23;;;;;;;;;;5030077;28;20017;-68
2021/12/28 09:34:16;;;;;;;3.63;1.00;;;;;;;;;;5032148;28;20026;-68
2021/12/28 09:36:41;;;;;;;1.98;0.80;;;;;;;;;;5033922;28;20131;-68
2021/12/28 09:39:07;;;;;;;1.90;0.60;;;;;;;;;;5033657;28;20083;-68
2021/12/28 09:41:32;;;;;;;3.90;0.77;;;;;;;;;;5032912;28;20014;-68
2021/12/28 09:43:58;;;;;;;1.77;0.90;;;;;;;;;;5033875;28;20025;-68
2021/12/28 09:46:23;;;;;;;6.10;1.45;;;;;;;;;;5033703;28;20032;-68
2021/12/28 09:48:48;;;;;;;9.93;1.20;;;;;;;;;;5033941;28;20017;-67
2021/12/28 09:51:13;;;;;;;5.47;2.23;;;;;;;;;;5030757;28;20029;-68
2021/12/28 09:53:38;;;;;;;7.67;1.13;;;;;;;;;;5028882;28;20284;-68
2021/12/28 09:56:04;;;;;;;4.70;0.80;;;;;;;;;;5032859;28;20280;-68
2021/12/28 09:58:32;;;;;;;6.28;0.68;;;;;;;;;;5031837;28;20084;-68
2021/12/28 10:00:57;;;;;;;2.83;1.65;;;;;;;;;;5032933;28;20022;-68
2021/12/28 10:03:22;;;;;;;1.40;0.73;;;;;;;;;;5032269;28;20099;-67
2021/12/28 10:05:47;;;;;;;1.40;0.77;;;;;;;;;;5032587;28;20033;-67
2021/12/28 10:08:13;;;;;;;4.30;1.03;;;;;;;;;;5030107;28;20286;-67
2021/12/28 10:10:43;;;;;;;1.67;1.02;;;;;;;;;;5032645;28;20264;-67
2021/12/28 10:13:10;;;;;;;6.72;0.75;;;;;;;;;;5032583;28;20086;-68
2021/12/28 10:15:37;;;;;;;5.70;1.48;;;;;;;;;;5028800;28;20045;-68
2021/12/28 10:18:04;;;;;;;3.45;1.00;;;;;;;;;;5029805;28;20018;-69
2021/12/28 10:20:37;;;;;;;0.73;0.40;;;;;;;;;;5032342;28;20022;-68
2021/12/28 10:23:04;;;;;;;1.17;0.70;;;;;;;;;;5032460;28;20025;-69
2021/12/28 10:25:31;;;;;;;3.40;1.20;;;;;;;;;;5032607;28;20037;-69
2021/12/28 10:28:01;;;;;;;1.35;0.90;;;;;;;;;;5032291;28;20028;-68
2021/12/28 10:30:26;;;;;;;;;;;;;;;;;;5028445;28;20021;-68
2021/12/28 10:32:56;;;;;;;2.57;0.73;;;;;;;;;;5031790;28;19916;-68
2021/12/28 10:35:23;;;;;;;2.03;0.60;;;;;;;;;;5032340;28;20882;-68
2021/12/28 10:37:52;;;;;;;3.78;0.77;;;;;;;;;;5031186;28;20111;-68
2021/12/28 10:40:30;;;;;;;2.20;1.23;;;;;;;;;;5031445;28;20057;-68
2021/12/28 10:43:06;;;;;;;3.70;1.00;;;;;;;;;;5029561;28;20032;-69
2021/12/28 10:45:36;;;;;;;2.88;0.80;;;;;;;;;;5031264;28;20540;-69
2021/12/28 10:48:06;;;;;;;4.28;1.63;;;;;;;;;;5030579;28;20082;-69
2021/12/28 10:50:35;;;;;;;2.28;1.52;;;;;;;;;;5032015;28;20155;-69
2021/12/28 10:53:08;;;;;;;0.88;0.80;;;;;;;;;;5031528;28;20402;-68
2021/12/28 10:55:33;;;;;;;2.92;0.88;;;;;;;;;;5030098;28;20017;-68
2021/12/28 10:57:58;;;;;;;1.50;0.98;;;;;;;;;;5031393;28;20024;-69
2021/12/28 11:00:29;;;;;;;0.90;0.70;;;;;;;;;;5030594;28;20381;-68
2021/12/28 11:03:13;;;;;;;2.35;0.80;;;;;;;;;;5031051;28;20392;-68
2021/12/28 11:05:38;;;;;;;1.63;0.40;;;;;;;;;;5028358;28;20034;-67
2021/12/28 11:08:07;;;;;;;2.15;1.17;;;;;;;;;;5030689;28;20038;-67
2021/12/28 11:10:32;;;;;;;1.05;0.60;;;;;;;;;;5031362;28;20108;-69
2021/12/28 11:12:58;;;;;;;0.93;0.63;;;;;;;;;;5031367;28;20109;-68
2021/12/28 11:15:23;;;;;;;10.70;1.08;;;;;;;;;;5027827;28;20033;-68
2021/12/28 11:17:48;;;;;;;3.25;1.00;;;;;;;;;;5027848;28;20028;-69
2021/12/28 11:20:14;;;;;;;4.65;0.68;;;;;;;;;;5031158;28;20026;-69
2021/12/28 11:22:39;;;;;;;1.45;0.75;;;;;;;;;;5030926;28;20024;-68
2021/12/28 11:25:17;;;;;;;3.58;1.10;;;;;;;;;;5030625;28;20083;-68
2021/12/28 11:27:42;;;;;;;1.80;0.70;;;;;;;;;;5030881;28;20079;-68
2021/12/28 11:30:12;;;;;;;9.98;0.95;;;;;;;;;;5031052;28;20033;-69
2021/12/28 11:32:37;;;;;;;3.00;1.03;;;;;;;;;;5031204;28;20107;-68
2021/12/28 11:35:02;;;;;;;0.98;0.68;;;;;;;;;;5030888;28;20112;-68
2021/12/28 11:37:28;;;;;;;0.63;0.40;;;;;;;;;;5028211;28;20029;-69
2021/12/28 11:39:55;;;;;;;1.05;0.52;;;;;;;;;;5030703;28;20231;-69
2021/12/28 11:42:21;;;;;;;4.80;0.68;;;;;;;;;;5031193;28;20026;-69
2021/12/28 11:44:47;;;;;;;5.95;0.75;;;;;;;;;;5031035;28;20504;-69
2021/12/28 11:47:13;;;;;;;6.22;0.20;;;;;;;;;;5026286;28;20026;-69
2021/12/28 11:49:40;;;;;;;0.70;0.50;;;;;;;;;;5031006;28;20028;-69
2021/12/28 11:52:07;;;;;;;1.67;0.77;;;;;;;;;;5030610;28;20025;-69
2021/12/28 11:54:34;;;;;;;4.15;0.75;;;;;;;;;;5030512;28;20034;-68
2021/12/28 11:57:05;;;;;;;1.55;0.73;;;;;;;;;;5030332;28;20028;-68
2021/12/28 11:59:32;;;;;;;3.75;0.52;;;;;;;;;;5029272;28;20029;-69
2021/12/28 12:01:57;;;;;;;1.88;0.32;;;;;;;;;;5029315;28;20048;-69
2021/12/28 12:04:34;;;;;;;2.47;0.50;;;;;;;;;;5029213;28;20053;-69
2021/12/28 12:07:00;;;;;;;2.50;0.60;;;;;;;;;;5029438;28;20021;-67
2021/12/28 12:09:25;;;;;;;1.60;0.60;;;;;;;;;;5030116;28;20017;-67
2021/12/28 12:12:10;;;;;;;0.95;0.50;;;;;;;;;;5032331;28;20032;-66
2021/12/28 12:15:03;;;;;;;0.45;0.32;;;;;;;;;;5026819;28;20440;-67
2021/12/28 12:17:37;;;;;;;1.10;0.60;;;;;;;;;;5028952;28;20112;-67
2021/12/28 12:20:05;;;;;;;1.30;0.63;;;;;;;;;;5030183;28;20025;-67
2021/12/28 12:22:30;;;;;;;3.05;0.75;;;;;;;;;;5030527;28;20025;-68
2021/12/28 12:24:56;;;;;;;1.90;0.63;;;;;;;;;;5030727;28;20049;-67
2021/12/28 12:27:38;;;;;;;4.82;1.70;;;;;;;;;;5030394;28;20262;-67
2021/12/28 12:30:03;;;;;;;0.93;0.40;;;;;;;;;;5029241;28;20023;-67
2021/12/28 12:32:48;;;;;;;3.88;0.90;;;;;;;;;;5034067;28;20093;-68
2021/12/28 12:35:26;;;;;;;2.25;1.13;;;;;;;;;;5029845;28;20569;-67
2021/12/28 12:37:52;;;;;;;0.77;0.40;;;;;;;;;;5029078;28;20022;-69
2021/12/28 12:40:17;;;;;;;1.25;0.70;;;;;;;;;;5030116;28;20027;-69
2021/12/28 12:42:42;;;;;;;1.53;0.90;;;;;;;;;;5030387;28;20014;-68
2021/12/28 12:45:07;;;;;;;6.35;0.95;;;;;;;;;;5030370;28;20357;-69
2021/12/28 12:47:36;;;;;;;8.80;0.70;;;;;;;;;;5026733;28;20489;-68
2021/12/28 12:50:05;;;;;;;16.15;1.75;;;;;;;;;;5025803;28;20029;-68
2021/12/28 12:52:30;;;;;;;15.70;1.48;;;;;;;;;;5030085;28;20105;-68
2021/12/28 12:54:56;;;;;;;13.47;1.13;;;;;;;;;;5029635;28;20100;-67
2021/12/28 12:57:22;;;;;;;30.23;2.40;;;;;;;;;;5030436;28;20725;-68
2021/12/28 12:59:50;;;;;;;20.90;2.75;;;;;;;;;;5029900;28;20662;-68
2021/12/28 13:02:25;;;;;;;24.10;3.47;;;;;;;;;;5030159;28;20010;-69
2021/12/28 13:04:52;;;;;;;15.95;2.60;;;;;;;;;;5030101;28;20021;-68
2021/12/28 13:07:25;;;;;;;20.00;2.35;;;;;;;;;;5030585;28;20104;-69
2021/12/28 13:10:20;;;;;;;21.58;2.95;;;;;;;;;;5034208;28;20017;-69
2021/12/28 13:12:53;;;;;;;5.82;1.42;;;;;;;;;;5023639;28;20402;-69
2021/12/28 13:15:18;;;;;;;3.58;0.93;;;;;;;;;;5033918;28;20025;-69
2021/12/28 13:17:45;;;;;;;34.37;4.70;;;;;;;;;;5033775;28;20087;-68
2021/12/28 13:20:21;;;;;;;19.33;3.50;;;;;;;;;;5033238;28;20310;-69
2021/12/28 13:23:13;;;;;;;20.92;1.92;;;;;;;;;;5033486;28;20092;-68
2021/12/28 13:25:44;;;;;;;25.48;3.78;;;;;;;;;;5031024;28;20311;-68
2021/12/28 13:28:10;;;;;;;19.65;3.45;;;;;;;;;;5032942;28;20017;-67
2021/12/28 13:30:37;;;;;;;21.73;3.10;;;;;;;;;;5033505;28;20492;-68
2021/12/28 13:33:03;;;;;;;24.80;3.25;;;;;;;;;;5033535;28;20469;-68
2021/12/28 13:35:31;;;;;;;11.93;2.10;;;;;;;;;;5033925;28;20021;-68
2021/12/28 13:38:01;;;;;;;13.32;2.13;;;;;;;;;;5044427;28;20435;-68
2021/12/28 13:40:26;;;;;;;19.10;3.25;;;;;;;;;;5033576;28;20121;-68
2021/12/28 13:42:54;;;;;;;20.67;3.80;;;;;;;;;;5032967;28;20283;-68
2021/12/28 13:45:30;;;;;;;26.45;3.72;;;;;;;;;;5033632;28;20057;-68
2021/12/28 13:47:57;;;;;;;15.52;2.40;;;;;;;;;;5028651;28;20030;-69
2021/12/28 13:50:23;;;;;;;18.88;3.65;;;;;;;;;;5029237;28;20104;-68
2021/12/28 13:52:50;;;;;;;33.72;4.75;;;;;;;;;;5033160;28;20109;-68
2021/12/28 13:55:17;;;;;;;13.68;2.05;;;;;;;;;;5027148;28;20456;-68
2021/12/28 13:57:42;;;;;;;32.90;5.20;;;;;;;;;;5033296;28;20048;-68
2021/12/28 14:00:09;;;;;;;52.88;3.60;;;;;;;;;;5032391;28;20049;-67
2021/12/28 14:02:34;;;;;;;26.85;5.95;;;;;;;;;;5042778;28;20079;-69
2021/12/28 14:04:59;;;;;;;30.50;5.00;;;;;;;;;;5044462;28;20014;-67
2021/12/28 14:07:25;;;;;;;26.80;2.65;;;;;;;;;;5031873;28;20025;-68
2021/12/28 14:09:51;;;;;;;23.30;4.38;;;;;;;;;;5030742;28;20040;-68
2021/12/28 14:12:18;;;;;;;29.08;3.80;;;;;;;;;;5032661;28;20117;-68
2021/12/28 14:14:47;;;;;;;15.60;2.42;;;;;;;;;;5030350;28;20049;-70
2021/12/28 14:17:14;;;;;;;32.53;5.53;;;;;;;;;;5028363;28;20021;-69
2021/12/28 14:19:40;;;;;;;17.08;3.17;;;;;;;;;;5031756;28;20032;-69
2021/12/28 14:22:07;;;;;;;19.38;2.65;;;;;;;;;;5031400;28;20020;-69
2021/12/28 14:24:34;;;;;;;34.97;3.83;;;;;;;;;;5031745;28;20022;-69
2021/12/28 14:26:59;;;;;;;29.08;4.22;;;;;;;;;;5032639;28;20030;-70
2021/12/28 14:29:26;;;;;;;22.63;3.35;;;;;;;;;;5029942;28;20021;-69
2021/12/28 14:31:52;;;;;;;15.75;3.47;;;;;;;;;;5031193;28;20049;-70
2021/12/28 14:34:27;;;;;;;23.52;4.68;;;;;;;;;;5032328;28;20033;-69
2021/12/28 14:36:58;;;;;;;23.40;3.53;;;;;;;;;;5030570;28;20385;-69
2021/12/28 14:39:24;;;;;;;29.08;3.33;;;;;;;;;;5027906;28;20029;-69